createdAt,value
2023-02-15T00:00:13.848Z,101614.50
2023-02-15T00:02:41.825Z,101617.25
2023-02-15T00:05:09.736Z,101624.03
2023-02-15T00:07:37.356Z,101617.94
2023-02-15T00:10:06.166Z,101613.75
2023-02-15T00:12:33.850Z,101623.16
2023-02-15T00:15:01.264Z,101620.69
2023-02-15T00:17:29.969Z,101626.00
2023-02-15T00:19:57.598Z,101630.44
2023-02-15T00:22:25.241Z,101624.16
2023-02-15T00:24:52.933Z,101629.44
2023-02-15T00:27:20.343Z,101628.38
2023-02-15T00:29:48.472Z,101635.47
2023-02-15T00:32:16.449Z,101622.34
2023-02-15T00:34:44.420Z,101627.09
2023-02-15T00:37:12.245Z,101629.84
2023-02-15T00:39:40.126Z,101618.66
2023-02-15T00:42:07.657Z,101623.03
2023-02-15T00:44:35.205Z,101622.09
2023-02-15T00:47:03.042Z,101621.16
2023-02-15T00:49:30.587Z,101620.28
2023-02-15T00:51:58.186Z,101623.81
2023-02-15T00:54:26.127Z,101619.53
2023-02-15T00:56:53.681Z,101621.13
2023-02-15T00:59:21.263Z,101621.34
2023-02-15T01:01:49.196Z,101621.94
2023-02-15T01:04:17.046Z,101616.59
2023-02-15T01:06:44.452Z,101620.06
2023-02-15T01:09:13.575Z,101614.25
2023-02-15T01:11:40.952Z,101608.22
2023-02-15T01:14:08.581Z,101615.19
2023-02-15T01:16:39.541Z,101612.50
2023-02-15T01:19:07.334Z,101613.37
2023-02-15T01:21:35.638Z,101612.44
2023-02-15T01:24:04.216Z,101615.12
2023-02-15T01:26:31.769Z,101603.81
2023-02-15T01:28:59.477Z,101602.34
2023-02-15T01:31:27.793Z,101600.47
2023-02-15T01:33:55.512Z,101594.41
2023-02-15T01:36:23.171Z,101597.97
2023-02-15T01:38:53.065Z,101596.09
2023-02-15T01:41:28.218Z,101590.94
2023-02-15T01:44:01.424Z,101580.62
2023-02-15T01:46:34.415Z,101582.34
2023-02-15T01:49:06.460Z,101579.63
2023-02-15T01:51:36.272Z,101585.53
2023-02-15T01:54:11.621Z,101583.72
2023-02-15T01:56:40.273Z,101578.56
2023-02-15T01:59:12.374Z,101582.56
2023-02-15T02:01:40.161Z,101585.09
2023-02-15T02:04:08.150Z,101585.84
2023-02-15T02:06:36.961Z,101581.25
2023-02-15T02:09:04.908Z,101585.09
2023-02-15T02:11:34.395Z,101579.88
2023-02-15T02:14:02.238Z,101585.03
2023-02-15T02:16:37.694Z,101572.91
2023-02-15T02:19:19.574Z,101578.22
2023-02-15T02:22:33.217Z,101573.78
2023-02-15T02:25:16.312Z,101566.09
2023-02-15T02:28:03.977Z,101575.69
2023-02-15T02:30:49.559Z,101569.53
2023-02-15T02:33:19.747Z,101564.38
2023-02-15T02:35:56.517Z,101569.53
2023-02-15T02:38:45.887Z,101567.25
2023-02-15T02:41:32.991Z,101573.88
2023-02-15T02:44:26.055Z,101574.72
2023-02-15T02:47:13.189Z,101575.75
2023-02-15T02:49:45.135Z,101581.69
2023-02-15T02:52:37.118Z,101583.50
2023-02-15T02:55:08.618Z,101585.09
2023-02-15T02:57:38.804Z,101577.34
2023-02-15T03:02:41.133Z,101585.75
2023-02-15T03:05:12.812Z,101584.09
2023-02-15T03:07:42.206Z,101577.19
2023-02-15T03:10:10.726Z,101585.75
2023-02-15T03:12:41.744Z,101578.72
2023-02-15T03:15:14.565Z,101588.06
2023-02-15T03:17:45.734Z,101583.06
2023-02-15T03:20:35.196Z,101587.34
2023-02-15T03:23:05.978Z,101584.00
2023-02-15T03:25:34.920Z,101583.78
2023-02-15T03:28:09.245Z,101591.62
2023-02-15T03:30:38.473Z,101593.34
2023-02-15T03:33:06.238Z,101592.34
2023-02-15T03:36:05.310Z,101594.84
2023-02-15T03:38:49.097Z,101594.09
2023-02-15T03:41:18.250Z,101597.38
2023-02-15T03:44:04.194Z,101598.19
2023-02-15T03:46:41.470Z,101603.31
2023-02-15T03:49:13.426Z,101596.50
2023-02-15T03:51:43.966Z,101589.06
2023-02-15T03:54:36.940Z,101593.50
2023-02-15T03:57:23.077Z,101592.78
2023-02-15T04:00:09.433Z,101591.12
2023-02-15T04:03:18.425Z,101602.63
2023-02-15T04:05:46.410Z,101600.69
2023-02-15T04:08:14.080Z,101599.87
2023-02-15T04:10:54.462Z,101592.66
2023-02-15T04:13:31.545Z,101594.47
2023-02-15T04:16:06.365Z,101593.72
2023-02-15T04:18:53.130Z,101593.56
2023-02-15T04:21:40.243Z,101593.75
2023-02-15T04:24:27.883Z,101580.62
2023-02-15T04:26:56.888Z,101583.84
2023-02-15T04:29:26.061Z,101592.72
2023-02-15T04:31:55.103Z,101588.97
2023-02-15T04:34:23.022Z,101579.66
2023-02-15T04:36:51.294Z,101590.56
2023-02-15T04:39:20.022Z,101581.56
2023-02-15T04:41:48.830Z,101587.75
2023-02-15T04:44:17.063Z,101595.66
2023-02-15T04:46:44.680Z,101595.66
2023-02-15T04:49:12.756Z,101603.37
2023-02-15T04:51:40.609Z,101604.91
2023-02-15T04:54:08.160Z,101599.06
2023-02-15T04:56:38.769Z,101596.25
2023-02-15T04:59:06.929Z,101598.75
2023-02-15T05:01:34.449Z,101596.94
2023-02-15T05:04:02.072Z,101595.06
2023-02-15T05:06:29.969Z,101593.28
2023-02-15T05:09:00.187Z,101600.50
2023-02-15T05:11:28.368Z,101602.34
2023-02-15T05:13:56.326Z,101604.53
2023-02-15T05:16:24.274Z,101606.37
2023-02-15T05:18:52.370Z,101612.25
2023-02-15T05:21:20.751Z,101612.25
2023-02-15T05:23:48.223Z,101618.53
2023-02-15T05:26:42.728Z,101606.47
2023-02-15T05:29:11.661Z,101616.84
2023-02-15T05:31:39.319Z,101617.78
2023-02-15T05:34:07.450Z,101628.88
2023-02-15T05:36:35.253Z,101629.53
2023-02-15T05:39:05.071Z,101627.97
2023-02-15T05:41:32.687Z,101629.41
2023-02-15T05:44:00.445Z,101635.31
2023-02-15T05:46:27.912Z,101638.78
2023-02-15T05:48:55.458Z,101636.94
2023-02-15T05:51:23.728Z,101643.03
2023-02-15T05:53:51.302Z,101647.06
2023-02-15T05:56:19.212Z,101641.06
2023-02-15T05:58:47.025Z,101639.59
2023-02-15T06:01:18.161Z,101643.13
2023-02-15T06:03:46.842Z,101639.97
2023-02-15T06:06:14.600Z,101636.69
2023-02-15T06:08:42.620Z,101645.38
2023-02-15T06:11:13.453Z,101650.91
2023-02-15T06:13:41.342Z,101652.69
2023-02-15T06:16:08.938Z,101648.53
2023-02-15T06:18:36.873Z,101649.44
2023-02-15T06:21:04.502Z,101651.44
2023-02-15T06:23:32.038Z,101647.66
2023-02-15T06:25:59.930Z,101643.19
2023-02-15T06:28:27.744Z,101645.06
2023-02-15T06:30:55.405Z,101647.16
2023-02-15T06:33:24.057Z,101644.41
2023-02-15T06:35:51.836Z,101647.09
2023-02-15T06:38:19.551Z,101653.31
2023-02-15T06:40:47.723Z,101653.38
2023-02-15T06:43:15.670Z,101657.91
2023-02-15T06:45:43.377Z,101650.97
2023-02-15T06:48:12.228Z,101650.25
2023-02-15T06:50:39.769Z,101653.75
2023-02-15T06:53:07.631Z,101656.94
2023-02-15T06:55:35.529Z,101656.34
2023-02-15T06:58:03.086Z,101658.31
2023-02-15T07:00:30.527Z,101659.25
2023-02-15T07:02:59.272Z,101660.97
2023-02-15T07:05:32.248Z,101668.03
2023-02-15T07:08:00.492Z,101662.91
2023-02-15T07:10:28.611Z,101657.69
2023-02-15T07:12:56.030Z,101649.38
2023-02-15T07:15:23.981Z,101660.69
2023-02-15T07:17:51.869Z,101653.34
2023-02-15T07:20:21.549Z,101650.66
2023-02-15T07:22:49.899Z,101640.66
2023-02-15T07:25:18.355Z,101644.47
2023-02-15T07:27:46.471Z,101639.12
2023-02-15T07:30:18.006Z,101646.75
2023-02-15T07:33:05.869Z,101642.97
2023-02-15T07:35:34.743Z,101645.47
2023-02-15T07:38:02.599Z,101649.84
2023-02-15T07:40:32.288Z,101646.50
2023-02-15T07:43:00.474Z,101644.94
2023-02-15T07:45:28.403Z,101642.53
2023-02-15T07:47:56.352Z,101640.03
2023-02-15T07:50:24.602Z,101642.09
2023-02-15T07:52:58.640Z,101635.09
2023-02-15T07:55:49.433Z,101623.19
2023-02-15T07:58:19.908Z,101628.47
2023-02-15T08:01:02.773Z,101632.00
2023-02-15T08:03:30.502Z,101638.31
2023-02-15T08:06:06.203Z,101628.00
2023-02-15T08:08:38.691Z,101622.88
2023-02-15T08:11:29.823Z,101631.06
2023-02-15T08:14:09.458Z,101629.41
2023-02-15T08:16:42.662Z,101619.87
2023-02-15T08:19:30.461Z,101615.53
2023-02-15T08:22:00.977Z,101606.94
2023-02-15T08:24:30.924Z,101606.84
2023-02-15T08:26:59.460Z,101602.69
2023-02-15T08:29:29.111Z,101601.69
2023-02-15T08:32:00.069Z,101599.22
2023-02-15T08:34:27.686Z,101608.75
2023-02-15T08:36:55.430Z,101599.19
2023-02-15T08:39:23.535Z,101608.03
2023-02-15T08:41:51.612Z,101605.47
2023-02-15T08:44:20.332Z,101599.34
2023-02-15T08:46:49.742Z,101601.94
2023-02-15T08:49:20.060Z,101594.03
2023-02-15T08:51:48.993Z,101601.09
2023-02-15T08:54:19.253Z,101594.91
2023-02-15T08:56:47.436Z,101587.94
2023-02-15T08:59:19.020Z,101586.22
2023-02-15T09:01:47.870Z,101579.19
2023-02-15T09:04:17.101Z,101578.31
2023-02-15T09:06:48.112Z,101589.69
2023-02-15T09:09:17.845Z,101578.25
2023-02-15T09:11:47.903Z,101579.66
2023-02-15T09:14:19.229Z,101578.81
2023-02-15T09:16:49.813Z,101587.53
2023-02-15T09:19:19.557Z,101585.81
2023-02-15T09:21:47.451Z,101580.62
2023-02-15T09:24:16.461Z,101574.25
2023-02-15T09:26:48.224Z,101578.41
2023-02-15T09:29:17.548Z,101576.97
2023-02-15T09:31:51.037Z,101581.12
2023-02-15T09:34:21.187Z,101587.22
2023-02-15T09:36:49.377Z,101580.16
2023-02-15T09:39:21.618Z,101579.25
2023-02-15T09:41:52.706Z,101576.53
2023-02-15T09:44:26.623Z,101575.06
2023-02-15T09:47:06.824Z,101568.81
2023-02-15T09:49:50.530Z,101566.53
2023-02-15T09:52:24.473Z,101556.75
2023-02-15T09:55:13.346Z,101557.31
2023-02-15T09:58:22.738Z,101547.72
2023-02-15T10:00:55.955Z,101550.44
2023-02-15T10:04:01.826Z,101535.09
2023-02-15T10:06:45.413Z,101543.34
2023-02-15T10:09:37.543Z,101541.66
2023-02-15T10:12:15.133Z,101532.94
2023-02-15T10:15:08.118Z,101531.09
2023-02-15T10:17:53.920Z,101529.22
2023-02-15T10:20:40.817Z,101541.84
2023-02-15T10:23:27.253Z,101526.38
2023-02-15T10:25:58.042Z,101525.09
2023-02-15T10:28:39.725Z,101530.03
2023-02-15T10:31:33.097Z,101529.91
2023-02-15T10:34:19.976Z,101528.84
2023-02-15T10:37:11.651Z,101519.47
2023-02-15T10:40:09.892Z,101517.03
2023-02-15T10:43:21.152Z,101520.09
2023-02-15T10:45:55.937Z,101522.94
2023-02-15T10:48:59.683Z,101515.16
2023-02-15T10:51:33.003Z,101514.34
2023-02-15T10:54:19.575Z,101507.25
2023-02-15T10:56:56.350Z,101508.22
2023-02-15T10:59:30.383Z,101500.38
2023-02-15T11:02:11.740Z,101492.69
2023-02-15T11:04:52.777Z,101487.44
2023-02-15T11:07:27.311Z,101491.50
2023-02-15T11:10:06.814Z,101485.81
2023-02-15T11:12:34.615Z,101485.44
2023-02-15T11:15:15.903Z,101479.94
2023-02-15T11:17:48.278Z,101475.22
2023-02-15T11:20:22.771Z,101472.47
2023-02-15T11:22:51.947Z,101466.81
2023-02-15T11:25:31.308Z,101461.84
2023-02-15T11:27:59.899Z,101467.59
2023-02-15T11:30:34.271Z,101460.66
2023-02-15T11:33:05.032Z,101456.06
2023-02-15T11:35:59.712Z,101448.00
2023-02-15T11:38:29.808Z,101443.09
2023-02-15T11:41:03.420Z,101433.34
2023-02-15T11:43:35.905Z,101441.69
2023-02-15T11:46:04.192Z,101442.44
2023-02-15T11:48:33.030Z,101432.97
2023-02-15T11:51:02.069Z,101428.62
2023-02-15T11:53:34.138Z,101428.41
2023-02-15T11:56:01.832Z,101429.22
2023-02-15T11:58:35.161Z,101429.38
2023-02-15T12:01:38.083Z,101409.75
2023-02-15T12:04:35.950Z,101415.75
2023-02-15T12:07:26.663Z,101417.81
2023-02-15T12:10:23.471Z,101426.13
2023-02-15T12:13:10.373Z,101424.19
2023-02-15T12:15:38.964Z,101422.44
2023-02-15T12:18:07.544Z,101414.84
2023-02-15T12:20:36.213Z,101415.81
2023-02-15T12:23:05.697Z,101401.47
2023-02-15T12:25:55.647Z,101402.97
2023-02-15T12:28:34.128Z,101398.75
2023-02-15T12:31:04.306Z,101399.22
2023-02-15T12:33:37.375Z,101398.41
2023-02-15T12:36:27.778Z,101384.16
2023-02-15T12:39:10.163Z,101382.22
2023-02-15T12:41:38.736Z,101386.84
2023-02-15T12:44:20.164Z,101382.56
2023-02-15T12:47:17.025Z,101378.66
2023-02-15T12:49:47.878Z,101372.31
2023-02-15T12:52:18.754Z,101373.44
2023-02-15T12:54:47.262Z,101370.19
2023-02-15T12:57:34.877Z,101369.28
2023-02-15T13:00:26.705Z,101361.63
2023-02-15T13:02:56.294Z,101357.75
2023-02-15T13:05:44.075Z,101364.84
2023-02-15T13:08:22.797Z,101369.75
2023-02-15T13:10:57.362Z,101361.97
2023-02-15T13:13:30.683Z,101363.13
2023-02-15T13:16:01.937Z,101354.53
2023-02-15T13:18:33.853Z,101349.75
2023-02-15T13:21:36.336Z,101352.78
2023-02-15T13:24:11.919Z,101350.88
2023-02-15T13:26:41.705Z,101347.75
2023-02-15T13:29:30.061Z,101350.00
2023-02-15T13:32:00.636Z,101340.59
2023-02-15T13:34:36.308Z,101341.31
2023-02-15T13:37:16.192Z,101347.47
2023-02-15T13:40:11.710Z,101347.62
2023-02-15T13:42:44.063Z,101343.97
2023-02-15T13:45:26.947Z,101337.00
2023-02-15T13:48:05.780Z,101335.41
2023-02-15T13:50:39.922Z,101337.00
2023-02-15T13:53:40.820Z,101331.44
2023-02-15T13:56:35.321Z,101328.06
2023-02-15T13:59:41.489Z,101331.72
2023-02-15T14:02:12.514Z,101329.19
2023-02-15T14:04:43.549Z,101328.03
2023-02-15T14:07:29.664Z,101322.09
2023-02-15T14:10:11.145Z,101334.34
2023-02-15T14:12:52.192Z,101332.91
2023-02-15T14:15:41.870Z,101326.97
2023-02-15T14:18:26.582Z,101331.75
2023-02-15T14:21:14.983Z,101332.63
2023-02-15T14:24:13.179Z,101334.03
2023-02-15T14:26:56.468Z,101333.50
2023-02-15T14:29:41.939Z,101336.62
2023-02-15T14:32:16.471Z,101340.53
2023-02-15T14:34:51.669Z,101341.22
2023-02-15T14:37:26.029Z,101344.06
2023-02-15T14:40:50.188Z,101344.69
2023-02-15T14:43:42.779Z,101345.09
2023-02-15T14:46:16.494Z,101340.72
2023-02-15T14:48:48.775Z,101337.94
2023-02-15T14:51:44.845Z,101333.75
2023-02-15T14:54:19.025Z,101329.31
2023-02-15T14:56:47.441Z,101331.69
2023-02-15T14:59:17.730Z,101335.31
2023-02-15T15:01:57.183Z,101326.47
2023-02-15T15:04:41.490Z,101321.81
2023-02-15T15:07:22.348Z,101319.16
2023-02-15T15:10:18.487Z,101323.62
2023-02-15T15:12:52.034Z,101314.69
2023-02-15T15:15:32.189Z,101317.03
2023-02-15T15:18:01.100Z,101303.12
2023-02-15T15:20:51.744Z,101317.78
2023-02-15T15:23:19.829Z,101316.31
2023-02-15T15:25:58.349Z,101321.94
2023-02-15T15:28:38.700Z,101309.16
2023-02-15T15:31:18.596Z,101316.72
2023-02-15T15:33:58.731Z,101311.28
2023-02-15T15:36:48.635Z,101311.28
2023-02-15T15:39:25.000Z,101315.75
2023-02-15T15:42:10.418Z,101314.69
2023-02-15T15:44:56.579Z,101311.37
2023-02-15T15:47:27.372Z,101314.87
2023-02-15T15:49:59.506Z,101313.44
2023-02-15T15:52:27.564Z,101318.81
2023-02-15T15:55:03.912Z,101308.81
2023-02-15T15:57:39.669Z,101310.66
2023-02-15T16:00:24.397Z,101306.47
2023-02-15T16:02:53.511Z,101310.97
2023-02-15T16:05:21.295Z,101298.00
2023-02-15T16:07:50.110Z,101304.31
2023-02-15T16:10:27.789Z,101300.41
2023-02-15T16:12:55.907Z,101295.78
2023-02-15T16:15:26.260Z,101291.28
2023-02-15T16:17:56.389Z,101302.16
2023-02-15T16:20:38.179Z,101297.06
2023-02-15T16:23:18.470Z,101302.09
2023-02-15T16:26:05.567Z,101304.44
2023-02-15T16:28:33.361Z,101306.47
2023-02-15T16:31:13.878Z,101308.37
2023-02-15T16:33:42.941Z,101317.44
2023-02-15T16:36:23.968Z,101310.63
2023-02-15T16:38:51.550Z,101309.69
2023-02-15T16:41:23.403Z,101323.12
2023-02-15T16:43:52.046Z,101320.59
2023-02-15T16:46:35.028Z,101322.78
2023-02-15T16:49:03.596Z,101318.44
2023-02-15T16:51:34.211Z,101317.44
2023-02-15T16:54:09.193Z,101319.50
2023-02-15T16:56:37.546Z,101317.03
2023-02-15T16:59:07.037Z,101324.91
2023-02-15T17:01:35.390Z,101328.69
2023-02-15T17:04:28.945Z,101327.94
2023-02-15T17:07:20.889Z,101326.34
2023-02-15T17:09:57.254Z,101338.59
2023-02-15T17:12:56.920Z,101342.13
2023-02-15T17:15:35.106Z,101333.47
2023-02-15T17:18:18.823Z,101347.62
2023-02-15T17:20:48.754Z,101341.41
2023-02-15T17:23:32.053Z,101341.41
2023-02-15T17:26:02.092Z,101337.00
2023-02-15T17:28:31.872Z,101340.69
2023-02-15T17:31:00.637Z,101331.94
2023-02-15T17:33:34.346Z,101333.75
2023-02-15T17:36:14.788Z,101337.31
2023-02-15T17:39:01.910Z,101336.47
2023-02-15T17:41:32.233Z,101334.75
2023-02-15T17:43:59.777Z,101332.25
2023-02-15T17:46:29.477Z,101331.41
2023-02-15T17:48:57.760Z,101332.25
2023-02-15T17:51:25.274Z,101327.91
2023-02-15T17:54:11.624Z,101329.66
2023-02-15T17:56:39.954Z,101324.44
2023-02-15T17:59:07.629Z,101327.09
2023-02-15T18:02:06.946Z,101326.22
2023-02-15T18:04:55.154Z,101330.66
2023-02-15T18:07:41.187Z,101329.81
2023-02-15T18:10:37.062Z,101328.91
2023-02-15T18:13:05.013Z,101327.25
2023-02-15T18:15:33.045Z,101326.38
2023-02-15T18:18:00.648Z,101328.13
2023-02-15T18:20:32.973Z,101322.88
2023-02-15T18:23:02.332Z,101324.63
2023-02-15T18:25:30.050Z,101324.63
2023-02-15T18:27:57.958Z,101316.78
2023-02-15T18:30:27.053Z,101324.66
2023-02-15T18:32:57.817Z,101323.78
2023-02-15T18:35:29.211Z,101322.94
2023-02-15T18:37:58.596Z,101319.47
2023-02-15T18:40:27.543Z,101324.72
2023-02-15T18:42:57.099Z,101327.31
2023-02-15T18:45:28.740Z,101328.22
2023-02-15T18:47:56.275Z,101322.97
2023-02-15T18:50:25.275Z,101329.94
2023-02-15T18:52:53.436Z,101332.53
2023-02-15T18:55:23.974Z,101325.53
2023-02-15T18:57:53.198Z,101323.78
2023-02-15T19:00:28.449Z,101325.53
2023-02-15T19:02:57.317Z,101329.06
2023-02-15T19:05:29.818Z,101328.16
2023-02-15T19:07:59.005Z,101329.03
2023-02-15T19:10:28.814Z,101327.28
2023-02-15T19:12:56.801Z,101330.75
2023-02-15T19:15:30.629Z,101323.62
2023-02-15T19:17:59.856Z,101328.09
2023-02-15T19:20:51.867Z,101328.09
2023-02-15T19:23:23.843Z,101330.72
2023-02-15T19:25:52.547Z,101321.09
2023-02-15T19:28:40.503Z,101325.50
2023-02-15T19:31:12.109Z,101329.00
2023-02-15T19:33:41.187Z,101321.94
2023-02-15T19:36:15.142Z,101328.06
2023-02-15T19:38:44.005Z,101328.03
2023-02-15T19:41:23.892Z,101334.06
2023-02-15T19:43:53.292Z,101336.62
2023-02-15T19:46:21.918Z,101330.50
2023-02-15T19:48:51.075Z,101330.53
2023-02-15T19:51:20.448Z,101332.25
2023-02-15T19:53:49.274Z,101334.87
2023-02-15T19:56:24.450Z,101335.78
2023-02-15T19:58:52.260Z,101331.38
2023-02-15T20:01:19.816Z,101325.22
2023-02-15T20:03:47.622Z,101320.03
2023-02-15T20:06:15.646Z,101325.25
2023-02-15T20:08:43.878Z,101321.72
2023-02-15T20:11:13.541Z,101324.31
2023-02-15T20:13:41.034Z,101323.41
2023-02-15T20:16:09.845Z,101333.88
2023-02-15T20:18:37.722Z,101331.03
2023-02-15T20:21:05.902Z,101323.31
2023-02-15T20:23:36.797Z,101331.13
2023-02-15T20:26:17.575Z,101322.44
2023-02-15T20:28:46.320Z,101325.88
2023-02-15T20:31:18.775Z,101324.06
2023-02-15T20:33:47.817Z,101321.53
2023-02-15T20:36:19.686Z,101331.13
2023-02-15T20:38:47.393Z,101319.66
2023-02-15T20:41:35.938Z,101317.03
2023-02-15T20:44:18.645Z,101320.59
2023-02-15T20:46:47.349Z,101326.66
2023-02-15T20:49:14.901Z,101322.19
2023-02-15T20:51:44.390Z,101323.00
2023-02-15T20:54:17.213Z,101319.62
2023-02-15T20:56:45.802Z,101325.78
2023-02-15T20:59:21.149Z,101317.94
2023-02-15T21:01:49.938Z,101320.41
2023-02-15T21:04:24.203Z,101319.69
2023-02-15T21:06:51.731Z,101318.72
2023-02-15T21:09:19.962Z,101321.16
2023-02-15T21:11:48.262Z,101332.47
2023-02-15T21:14:21.457Z,101315.19
2023-02-15T21:16:50.090Z,101314.28
2023-02-15T21:19:20.372Z,101314.31
2023-02-15T21:21:49.266Z,101312.53
2023-02-15T21:24:27.155Z,101311.63
2023-02-15T21:26:56.337Z,101313.31
2023-02-15T21:29:27.152Z,101311.50
2023-02-15T21:31:55.036Z,101322.03
2023-02-15T21:34:23.078Z,101317.59
2023-02-15T21:36:50.882Z,101314.06
2023-02-15T21:39:26.900Z,101314.13
2023-02-15T21:42:13.862Z,101312.41
2023-02-15T21:45:00.071Z,101322.00
2023-02-15T21:47:50.954Z,101319.16
2023-02-15T21:50:40.225Z,101319.22
2023-02-15T21:53:13.742Z,101321.59
2023-02-15T21:55:45.798Z,101312.78
2023-02-15T22:12:19.662Z,101309.22
2023-02-15T22:26:48.808Z,101313.38
2023-02-15T22:34:26.608Z,101311.13
2023-02-15T22:40:16.427Z,101322.25
2023-02-15T22:42:50.296Z,101319.59
2023-02-15T22:45:24.140Z,101318.75
2023-02-15T22:58:19.000Z,101313.50
2023-02-15T23:05:02.853Z,101311.66
2023-02-15T23:08:23.284Z,101319.41
2023-02-15T23:11:35.521Z,101313.28
2023-02-15T23:15:13.430Z,101313.34
2023-02-15T23:40:09.821Z,101308.69
2023-02-15T23:43:10.011Z,101309.56
2023-02-15T23:46:22.007Z,101300.88
2023-02-15T23:49:24.437Z,101292.66
2023-02-15T23:52:15.435Z,101287.47
2023-02-15T23:55:09.708Z,101287.75
2023-02-15T23:58:02.957Z,101287.72
